sensor_id;sensor_type;location;lat;lon;timestamp;pressure;altitude;pressure_sealevel;temperature;humidity
9738;BME280;4908;47.446;13.900;2023-12-20T00:01:21;92883.97;;;-5.49;100.00
9738;BME280;4908;47.446;13.900;2023-12-20T00:03:48;92885.63;;;-5.58;100.00
9738;BME280;4908;47.446;13.900;2023-12-20T00:06:15;92882.97;;;-5.53;100.00
9738;BME280;4908;47.446;13.900;2023-12-20T00:08:42;92879.72;;;-5.45;100.00
9738;BME280;4908;47.446;13.900;2023-12-20T00:11:10;92873.59;;;-5.54;100.00
9738;BME280;4908;47.446;13.900;2023-12-20T00:13:37;92877.41;;;-5.47;100.00
9738;BME280;4908;47.446;13.900;2023-12-20T00:16:06;92868.44;;;-5.59;100.00
9738;BME280;4908;47.446;13.900;2023-12-20T00:18:33;92869.22;;;-5.59;100.00
9738;BME280;4908;47.446;13.900;2023-12-20T00:21:00;92857.66;;;-5.34;100.00
9738;BME280;4908;47.446;13.900;2023-12-20T00:23:27;92842.66;;;-5.05;100.00
9738;BME280;4908;47.446;13.900;2023-12-20T00:25:54;92848.78;;;-5.14;100.00
9738;BME280;4908;47.446;13.900;2023-12-20T00:28:21;92845.06;;;-5.27;100.00
9738;BME280;4908;47.446;13.900;2023-12-20T00:30:48;92840.75;;;-5.36;100.00
9738;BME280;4908;47.446;13.900;2023-12-20T00:33:16;92835.53;;;-5.36;100.00
9738;BME280;4908;47.446;13.900;2023-12-20T00:35:44;92833.53;;;-5.63;100.00
9738;BME280;4908;47.446;13.900;2023-12-20T00:38:11;92822.06;;;-5.62;100.00
9738;BME280;4908;47.446;13.900;2023-12-20T00:40:38;92826.47;;;-5.81;100.00
9738;BME280;4908;47.446;13.900;2023-12-20T00:43:05;92818.34;;;-5.98;100.00
9738;BME280;4908;47.446;13.900;2023-12-20T00:45:32;92822.03;;;-5.99;100.00
9738;BME280;4908;47.446;13.900;2023-12-20T00:47:59;92818.72;;;-5.86;100.00
9738;BME280;4908;47.446;13.900;2023-12-20T00:50:27;92814.97;;;-5.80;100.00
9738;BME280;4908;47.446;13.900;2023-12-20T00:52:54;92819.47;;;-5.62;100.00
9738;BME280;4908;47.446;13.900;2023-12-20T00:55:22;92811.19;;;-5.69;100.00
9738;BME280;4908;47.446;13.900;2023-12-20T00:57:49;92811.06;;;-5.59;100.00
9738;BME280;4908;47.446;13.900;2023-12-20T01:00:17;92804.22;;;-5.55;100.00
9738;BME280;4908;47.446;13.900;2023-12-20T01:02:44;92806.19;;;-5.84;100.00
9738;BME280;4908;47.446;13.900;2023-12-20T01:05:12;92802.44;;;-5.78;100.00
9738;BME280;4908;47.446;13.900;2023-12-20T01:07:40;92800.25;;;-5.71;100.00
9738;BME280;4908;47.446;13.900;2023-12-20T01:10:08;92793.16;;;-5.84;100.00
9738;BME280;4908;47.446;13.900;2023-12-20T01:12:36;92792.31;;;-5.80;100.00
9738;BME280;4908;47.446;13.900;2023-12-20T01:15:04;92791.03;;;-5.82;100.00
9738;BME280;4908;47.446;13.900;2023-12-20T01:17:31;92790.72;;;-5.38;100.00
9738;BME280;4908;47.446;13.900;2023-12-20T01:19:58;92784.47;;;-5.61;100.00
9738;BME280;4908;47.446;13.900;2023-12-20T01:22:25;92789.41;;;-5.78;100.00
9738;BME280;4908;47.446;13.900;2023-12-20T01:24:53;92777.09;;;-5.73;100.00
9738;BME280;4908;47.446;13.900;2023-12-20T01:27:21;92784.94;;;-5.54;100.00
9738;BME280;4908;47.446;13.900;2023-12-20T01:29:48;92782.16;;;-5.63;100.00
9738;BME280;4908;47.446;13.900;2023-12-20T01:32:15;92774.47;;;-5.73;100.00
9738;BME280;4908;47.446;13.900;2023-12-20T01:34:42;92777.38;;;-5.74;100.00
9738;BME280;4908;47.446;13.900;2023-12-20T01:37:09;92780.22;;;-5.52;100.00
9738;BME280;4908;47.446;13.900;2023-12-20T01:39:36;92767.44;;;-5.72;100.00
9738;BME280;4908;47.446;13.900;2023-12-20T01:42:05;92772.78;;;-5.82;100.00
9738;BME280;4908;47.446;13.900;2023-12-20T01:44:32;92771.75;;;-5.81;100.00
9738;BME280;4908;47.446;13.900;2023-12-20T01:46:59;92766.94;;;-5.74;100.00
9738;BME280;4908;47.446;13.900;2023-12-20T01:49:27;92769.25;;;-5.73;100.00
9738;BME280;4908;47.446;13.900;2023-12-20T01:51:54;92768.84;;;-5.61;100.00
9738;BME280;4908;47.446;13.900;2023-12-20T01:54:22;92774.75;;;-5.56;100.00
9738;BME280;4908;47.446;13.900;2023-12-20T01:56:49;92765.59;;;-5.53;100.00
9738;BME280;4908;47.446;13.900;2023-12-20T01:59:18;92761.88;;;-5.47;100.00
9738;BME280;4908;47.446;13.900;2023-12-20T02:01:45;92762.22;;;-5.35;100.00
9738;BME280;4908;47.446;13.900;2023-12-20T02:04:13;92759.53;;;-5.49;100.00
9738;BME280;4908;47.446;13.900;2023-12-20T02:06:40;92756.66;;;-5.47;100.00
9738;BME280;4908;47.446;13.900;2023-12-20T02:09:07;92749.81;;;-5.43;100.00
9738;BME280;4908;47.446;13.900;2023-12-20T02:11:36;92742.63;;;-5.51;100.00
9738;BME280;4908;47.446;13.900;2023-12-20T02:14:03;92742.00;;;-5.43;100.00
9738;BME280;4908;47.446;13.900;2023-12-20T02:16:31;92741.16;;;-5.57;100.00
9738;BME280;4908;47.446;13.900;2023-12-20T02:18:59;92751.88;;;-5.77;100.00
9738;BME280;4908;47.446;13.900;2023-12-20T02:21:32;92745.94;;;-5.64;100.00
9738;BME280;4908;47.446;13.900;2023-12-20T02:24:00;92735.63;;;-5.37;100.00
9738;BME280;4908;47.446;13.900;2023-12-20T02:26:27;92731.63;;;-5.48;100.00
9738;BME280;4908;47.446;13.900;2023-12-20T02:28:55;92739.75;;;-5.68;100.00
9738;BME280;4908;47.446;13.900;2023-12-20T02:31:22;92734.97;;;-5.98;100.00
9738;BME280;4908;47.446;13.900;2023-12-20T02:33:49;92729.69;;;-5.93;100.00
9738;BME280;4908;47.446;13.900;2023-12-20T02:36:15;92722.88;;;-5.89;100.00
9738;BME280;4908;47.446;13.900;2023-12-20T02:38:44;92728.78;;;-5.84;100.00
9738;BME280;4908;47.446;13.900;2023-12-20T02:41:11;92723.34;;;-6.06;100.00
9738;BME280;4908;47.446;13.900;2023-12-20T02:43:38;92723.50;;;-5.97;100.00
9738;BME280;4908;47.446;13.900;2023-12-20T02:48:40;92716.22;;;-6.00;100.00
9738;BME280;4908;47.446;13.900;2023-12-20T02:51:07;92721.25;;;-5.85;100.00
9738;BME280;4908;47.446;13.900;2023-12-20T02:53:34;92710.97;;;-5.95;100.00
9738;BME280;4908;47.446;13.900;2023-12-20T02:56:03;92710.88;;;-5.90;100.00
9738;BME280;4908;47.446;13.900;2023-12-20T02:58:30;92704.69;;;-5.94;100.00
9738;BME280;4908;47.446;13.900;2023-12-20T03:00:57;92703.44;;;-5.65;100.00
9738;BME280;4908;47.446;13.900;2023-12-20T03:03:25;92700.78;;;-5.60;100.00
9738;BME280;4908;47.446;13.900;2023-12-20T03:05:52;92693.53;;;-5.81;100.00
9738;BME280;4908;47.446;13.900;2023-12-20T03:08:19;92678.63;;;-5.94;100.00
9738;BME280;4908;47.446;13.900;2023-12-20T03:10:46;92682.69;;;-5.88;100.00
9738;BME280;4908;47.446;13.900;2023-12-20T03:13:14;92680.22;;;-5.98;100.00
9738;BME280;4908;47.446;13.900;2023-12-20T03:15:41;92674.47;;;-5.95;100.00
9738;BME280;4908;47.446;13.900;2023-12-20T03:18:08;92666.31;;;-6.07;100.00
9738;BME280;4908;47.446;13.900;2023-12-20T03:20:35;92653.63;;;-6.32;100.00
9738;BME280;4908;47.446;13.900;2023-12-20T03:23:03;92663.41;;;-6.24;100.00
9738;BME280;4908;47.446;13.900;2023-12-20T03:25:30;92666.72;;;-6.00;100.00
9738;BME280;4908;47.446;13.900;2023-12-20T03:27:57;92653.53;;;-5.90;100.00
9738;BME280;4908;47.446;13.900;2023-12-20T03:30:25;92653.53;;;-5.90;100.00
9738;BME280;4908;47.446;13.900;2023-12-20T03:32:52;92642.63;;;-5.92;100.00
9738;BME280;4908;47.446;13.900;2023-12-20T03:35:19;92647.19;;;-5.84;100.00
9738;BME280;4908;47.446;13.900;2023-12-20T03:37:46;92640.00;;;-5.92;100.00
9738;BME280;4908;47.446;13.900;2023-12-20T03:40:13;92634.41;;;-5.99;100.00
9738;BME280;4908;47.446;13.900;2023-12-20T03:42:40;92632.84;;;-6.00;100.00
9738;BME280;4908;47.446;13.900;2023-12-20T03:45:09;92628.78;;;-6.06;100.00
9738;BME280;4908;47.446;13.900;2023-12-20T03:47:37;92630.78;;;-5.85;100.00
9738;BME280;4908;47.446;13.900;2023-12-20T03:50:05;92637.00;;;-5.67;100.00
9738;BME280;4908;47.446;13.900;2023-12-20T03:52:32;92622.09;;;-5.80;100.00
9738;BME280;4908;47.446;13.900;2023-12-20T03:54:59;92614.44;;;-5.90;100.00
9738;BME280;4908;47.446;13.900;2023-12-20T03:57:26;92616.53;;;-6.24;100.00
9738;BME280;4908;47.446;13.900;2023-12-20T03:59:53;92622.94;;;-6.17;100.00
9738;BME280;4908;47.446;13.900;2023-12-20T04:02:20;92630.47;;;-6.15;100.00
9738;BME280;4908;47.446;13.900;2023-12-20T04:04:49;92626.94;;;-6.24;100.00
9738;BME280;4908;47.446;13.900;2023-12-20T04:07:16;92626.66;;;-6.42;100.00
9738;BME280;4908;47.446;13.900;2023-12-20T04:09:43;92629.44;;;-6.57;100.00
9738;BME280;4908;47.446;13.900;2023-12-20T04:12:10;92620.72;;;-6.66;100.00
9738;BME280;4908;47.446;13.900;2023-12-20T04:14:37;92614.97;;;-6.63;100.00
9738;BME280;4908;47.446;13.900;2023-12-20T04:17:04;92613.03;;;-6.33;100.00
9738;BME280;4908;47.446;13.900;2023-12-20T04:19:31;92611.72;;;-6.17;100.00
9738;BME280;4908;47.446;13.900;2023-12-20T04:21:59;92610.59;;;-6.11;100.00
9738;BME280;4908;47.446;13.900;2023-12-20T04:24:26;92599.78;;;-6.18;100.00
9738;BME280;4908;47.446;13.900;2023-12-20T04:26:53;92597.03;;;-6.27;100.00
9738;BME280;4908;47.446;13.900;2023-12-20T04:29:20;92610.75;;;-6.21;100.00
9738;BME280;4908;47.446;13.900;2023-12-20T04:31:47;92599.91;;;-6.28;100.00
9738;BME280;4908;47.446;13.900;2023-12-20T04:34:16;92599.06;;;-6.24;100.00
9738;BME280;4908;47.446;13.900;2023-12-20T04:36:43;92603.59;;;-6.29;100.00
9738;BME280;4908;47.446;13.900;2023-12-20T04:39:13;92603.84;;;-6.12;100.00
9738;BME280;4908;47.446;13.900;2023-12-20T04:41:40;92606.38;;;-6.07;100.00
9738;BME280;4908;47.446;13.900;2023-12-20T04:44:07;92606.94;;;-6.10;100.00
9738;BME280;4908;47.446;13.900;2023-12-20T04:46:34;92603.84;;;-6.12;100.00
9738;BME280;4908;47.446;13.900;2023-12-20T04:49:01;92608.28;;;-6.13;100.00
9738;BME280;4908;47.446;13.900;2023-12-20T04:51:28;92611.72;;;-6.17;100.00
9738;BME280;4908;47.446;13.900;2023-12-20T04:53:55;92606.25;;;-6.16;100.00
9738;BME280;4908;47.446;13.900;2023-12-20T04:56:24;92613.16;;;-6.06;100.00
9738;BME280;4908;47.446;13.900;2023-12-20T04:58:51;92622.09;;;-5.80;100.00
9738;BME280;4908;47.446;13.900;2023-12-20T05:01:18;92633.09;;;-5.51;100.00
9738;BME280;4908;47.446;13.900;2023-12-20T05:03:46;92634.06;;;-5.79;100.00
9738;BME280;4908;47.446;13.900;2023-12-20T05:06:13;92634.47;;;-5.40;100.00
9738;BME280;4908;47.446;13.900;2023-12-20T05:08:40;92636.34;;;-5.27;100.00
9738;BME280;4908;47.446;13.900;2023-12-20T05:11:07;92635.06;;;-5.29;100.00
9738;BME280;4908;47.446;13.900;2023-12-20T05:13:36;92656.44;;;-5.60;100.00
9738;BME280;4908;47.446;13.900;2023-12-20T05:16:03;92650.09;;;-5.40;100.00
9738;BME280;4908;47.446;13.900;2023-12-20T05:18:31;92653.41;;;-5.48;100.00
9738;BME280;4908;47.446;13.900;2023-12-20T05:20:58;92659.16;;;-5.19;100.00
9738;BME280;4908;47.446;13.900;2023-12-20T05:23:25;92665.75;;;-5.40;100.00
9738;BME280;4908;47.446;13.900;2023-12-20T05:25:52;92674.75;;;-5.46;100.00
9738;BME280;4908;47.446;13.900;2023-12-20T05:28:19;92661.31;;;-5.39;100.00
9738;BME280;4908;47.446;13.900;2023-12-20T05:30:47;92659.88;;;-5.32;100.00
9738;BME280;4908;47.446;13.900;2023-12-20T05:33:14;92667.16;;;-5.29;100.00
9738;BME280;4908;47.446;13.900;2023-12-20T05:35:42;92668.81;;;-5.19;100.00
9738;BME280;4908;47.446;13.900;2023-12-20T05:38:09;92679.47;;;-5.16;100.00
9738;BME280;4908;47.446;13.900;2023-12-20T05:40:36;92675.91;;;-5.06;100.00
9738;BME280;4908;47.446;13.900;2023-12-20T05:43:03;92687.13;;;-5.06;100.00
9738;BME280;4908;47.446;13.900;2023-12-20T05:45:30;92687.81;;;-5.00;100.00
9738;BME280;4908;47.446;13.900;2023-12-20T05:47:59;92681.13;;;-5.06;100.00
9738;BME280;4908;47.446;13.900;2023-12-20T05:50:26;92687.13;;;-5.06;100.00
9738;BME280;4908;47.446;13.900;2023-12-20T05:52:53;92682.41;;;-4.90;100.00
9738;BME280;4908;47.446;13.900;2023-12-20T05:55:20;92678.34;;;-4.96;100.00
9738;BME280;4908;47.446;13.900;2023-12-20T05:57:47;92683.19;;;-4.76;100.00
9738;BME280;4908;47.446;13.900;2023-12-20T06:00:15;92684.53;;;-4.79;100.00
9738;BME280;4908;47.446;13.900;2023-12-20T06:02:43;92684.75;;;-4.62;100.00
9738;BME280;4908;47.446;13.900;2023-12-20T06:05:11;92692.88;;;-4.77;100.00
9738;BME280;4908;47.446;13.900;2023-12-20T06:07:38;92694.78;;;-4.82;100.00
9738;BME280;4908;47.446;13.900;2023-12-20T06:10:06;92700.72;;;-4.63;100.00
9738;BME280;4908;47.446;13.900;2023-12-20T06:12:33;92700.78;;;-4.55;100.00
9738;BME280;4908;47.446;13.900;2023-12-20T06:15:01;92705.63;;;-4.75;100.00
9738;BME280;4908;47.446;13.900;2023-12-20T06:17:29;92703.69;;;-4.70;100.00
9738;BME280;4908;47.446;13.900;2023-12-20T06:19:57;92719.34;;;-4.70;100.00
9738;BME280;4908;47.446;13.900;2023-12-20T06:22:25;92707.44;;;-4.89;100.00
9738;BME280;4908;47.446;13.900;2023-12-20T06:24:52;92719.72;;;-5.03;100.00
9738;BME280;4908;47.446;13.900;2023-12-20T06:27:19;92716.72;;;-4.83;100.00
9738;BME280;4908;47.446;13.900;2023-12-20T06:29:46;92721.13;;;-4.51;100.00
9738;BME280;4908;47.446;13.900;2023-12-20T06:32:13;92722.00;;;-4.42;100.00
9738;BME280;4908;47.446;13.900;2023-12-20T06:34:40;92730.50;;;-4.50;100.00
9738;BME280;4908;47.446;13.900;2023-12-20T06:37:07;92729.25;;;-4.53;100.00
9738;BME280;4908;47.446;13.900;2023-12-20T06:39:36;92737.00;;;-4.34;100.00
9738;BME280;4908;47.446;13.900;2023-12-20T06:42:03;92739.97;;;-4.55;100.00
9738;BME280;4908;47.446;13.900;2023-12-20T06:44:30;92752.53;;;-4.57;100.00
9738;BME280;4908;47.446;13.900;2023-12-20T06:46:58;92743.19;;;-4.44;100.00
9738;BME280;4908;47.446;13.900;2023-12-20T06:49:25;92740.47;;;-4.39;100.00
9738;BME280;4908;47.446;13.900;2023-12-20T06:51:52;92739.03;;;-4.18;100.00
9738;BME280;4908;47.446;13.900;2023-12-20T06:54:19;92741.06;;;-4.28;100.00
9738;BME280;4908;47.446;13.900;2023-12-20T06:56:47;92736.44;;;-4.31;100.00
9738;BME280;4908;47.446;13.900;2023-12-20T06:59:14;92743.38;;;-4.27;100.00
9738;BME280;4908;47.446;13.900;2023-12-20T07:01:41;92744.72;;;-4.43;100.00
9738;BME280;4908;47.446;13.900;2023-12-20T07:04:08;92743.00;;;-4.47;100.00
9738;BME280;4908;47.446;13.900;2023-12-20T07:06:36;92749.38;;;-4.40;100.00
9738;BME280;4908;47.446;13.900;2023-12-20T07:09:03;92748.22;;;-4.20;100.00
9738;BME280;4908;47.446;13.900;2023-12-20T07:11:30;92749.56;;;-3.96;100.00
9738;BME280;4908;47.446;13.900;2023-12-20T07:13:59;92743.00;;;-4.20;100.00
9738;BME280;4908;47.446;13.900;2023-12-20T07:16:28;92756.25;;;-4.30;100.00
9738;BME280;4908;47.446;13.900;2023-12-20T07:18:55;92749.75;;;-4.19;100.00
9738;BME280;4908;47.446;13.900;2023-12-20T07:21:22;92748.41;;;-4.03;100.00
9738;BME280;4908;47.446;13.900;2023-12-20T07:23:49;92752.19;;;-4.09;100.00
9738;BME280;4908;47.446;13.900;2023-12-20T07:26:17;92746.75;;;-3.99;100.00
9738;BME280;4908;47.446;13.900;2023-12-20T07:28:44;92730.97;;;-4.08;100.00
9738;BME280;4908;47.446;13.900;2023-12-20T07:31:12;92730.84;;;-3.76;100.00
9738;BME280;4908;47.446;13.900;2023-12-20T07:33:42;92726.72;;;-3.54;100.00
9738;BME280;4908;47.446;13.900;2023-12-20T07:36:09;92731.38;;;-3.65;100.00
9738;BME280;4908;47.446;13.900;2023-12-20T07:38:36;92733.44;;;-3.62;100.00
9738;BME280;4908;47.446;13.900;2023-12-20T07:41:03;92726.63;;;-3.63;100.00
9738;BME280;4908;47.446;13.900;2023-12-20T07:43:30;92728.56;;;-3.55;100.00
9738;BME280;4908;47.446;13.900;2023-12-20T07:45:57;92732.16;;;-3.29;100.00
9738;BME280;4908;47.446;13.900;2023-12-20T07:48:26;92731.81;;;-3.49;100.00
9738;BME280;4908;47.446;13.900;2023-12-20T07:50:53;92725.63;;;-3.53;100.00
9738;BME280;4908;47.446;13.900;2023-12-20T07:53:20;92724.66;;;-3.44;100.00
9738;BME280;4908;47.446;13.900;2023-12-20T07:55:46;92721.78;;;-3.34;100.00
9738;BME280;4908;47.446;13.900;2023-12-20T07:58:13;92734.75;;;-2.85;100.00
9738;BME280;4908;47.446;13.900;2023-12-20T08:00:41;92739.06;;;-2.89;100.00
9738;BME280;4908;47.446;13.900;2023-12-20T08:03:08;92730.13;;;-2.88;100.00
9738;BME280;4908;47.446;13.900;2023-12-20T08:05:39;92731.44;;;-2.77;100.00
9738;BME280;4908;47.446;13.900;2023-12-20T08:08:06;92726.78;;;-2.80;100.00
9738;BME280;4908;47.446;13.900;2023-12-20T08:10:33;92716.81;;;-2.69;100.00
9738;BME280;4908;47.446;13.900;2023-12-20T08:13:00;92730.34;;;-2.76;100.00
9738;BME280;4908;47.446;13.900;2023-12-20T08:15:28;92725.09;;;-2.76;100.00
9738;BME280;4908;47.446;13.900;2023-12-20T08:17:55;92720.22;;;-2.68;100.00
9738;BME280;4908;47.446;13.900;2023-12-20T08:20:22;92724.25;;;-2.62;100.00
9738;BME280;4908;47.446;13.900;2023-12-20T08:22:50;92738.50;;;-2.46;100.00
9738;BME280;4908;47.446;13.900;2023-12-20T08:25:17;92737.78;;;-2.38;100.00
9738;BME280;4908;47.446;13.900;2023-12-20T08:27:44;92745.78;;;-2.04;100.00
9738;BME280;4908;47.446;13.900;2023-12-20T08:30:11;92747.75;;;-2.18;100.00
9738;BME280;4908;47.446;13.900;2023-12-20T08:32:38;92745.16;;;-2.01;100.00
9738;BME280;4908;47.446;13.900;2023-12-20T08:35:06;92752.56;;;-2.03;100.00
9738;BME280;4908;47.446;13.900;2023-12-20T08:37:33;92744.84;;;-2.08;100.00
9738;BME280;4908;47.446;13.900;2023-12-20T08:40:03;92744.53;;;-1.98;100.00
9738;BME280;4908;47.446;13.900;2023-12-20T08:42:30;92735.81;;;-1.85;100.00
9738;BME280;4908;47.446;13.900;2023-12-20T08:44:57;92738.09;;;-1.92;100.00
9738;BME280;4908;47.446;13.900;2023-12-20T08:47:25;92740.91;;;-1.89;100.00
9738;BME280;4908;47.446;13.900;2023-12-20T08:49:52;92731.84;;;-2.13;100.00
9738;BME280;4908;47.446;13.900;2023-12-20T08:52:22;92734.94;;;-2.11;100.00
9738;BME280;4908;47.446;13.900;2023-12-20T08:54:49;92733.59;;;-2.00;100.00
9738;BME280;4908;47.446;13.900;2023-12-20T08:57:19;92728.41;;;-1.83;100.00
9738;BME280;4908;47.446;13.900;2023-12-20T08:59:46;92737.53;;;-1.72;100.00
9738;BME280;4908;47.446;13.900;2023-12-20T09:02:14;92737.25;;;-1.62;100.00
9738;BME280;4908;47.446;13.900;2023-12-20T09:04:41;92726.44;;;-1.52;100.00
9738;BME280;4908;47.446;13.900;2023-12-20T09:07:21;92731.97;;;-1.53;100.00
9738;BME280;4908;47.446;13.900;2023-12-20T09:09:48;92727.69;;;-1.41;100.00
9738;BME280;4908;47.446;13.900;2023-12-20T09:12:15;92730.63;;;-1.25;100.00
9738;BME280;4908;47.446;13.900;2023-12-20T09:14:43;92728.63;;;-1.20;100.00
9738;BME280;4908;47.446;13.900;2023-12-20T09:17:10;92721.22;;;-1.09;100.00
9738;BME280;4908;47.446;13.900;2023-12-20T09:19:38;92717.34;;;-1.03;100.00
9738;BME280;4908;47.446;13.900;2023-12-20T09:22:05;92722.88;;;-1.05;100.00
9738;BME280;4908;47.446;13.900;2023-12-20T09:24:32;92717.91;;;-0.89;100.00
9738;BME280;4908;47.446;13.900;2023-12-20T09:26:59;92712.53;;;-0.93;100.00
9738;BME280;4908;47.446;13.900;2023-12-20T09:29:26;92712.81;;;-0.85;100.00
9738;BME280;4908;47.446;13.900;2023-12-20T09:31:54;92708.47;;;-0.81;100.00
9738;BME280;4908;47.446;13.900;2023-12-20T09:34:23;92703.41;;;-0.86;100.00
9738;BME280;4908;47.446;13.900;2023-12-20T09:36:51;92701.81;;;-0.70;100.00
9738;BME280;4908;47.446;13.900;2023-12-20T09:39:19;92701.97;;;-0.75;100.00
9738;BME280;4908;47.446;13.900;2023-12-20T09:41:54;92709.19;;;-0.55;100.00
9738;BME280;4908;47.446;13.900;2023-12-20T09:44:24;92709.19;;;-0.55;100.00
9738;BME280;4908;47.446;13.900;2023-12-20T09:46:54;92714.44;;;-0.47;100.00
9738;BME280;4908;47.446;13.900;2023-12-20T09:49:22;92705.59;;;-0.42;100.00
9738;BME280;4908;47.446;13.900;2023-12-20T09:51:50;92706.25;;;-0.45;100.00
9738;BME280;4908;47.446;13.900;2023-12-20T09:54:18;92716.41;;;-0.35;100.00
9738;BME280;4908;47.446;13.900;2023-12-20T09:56:45;92702.41;;;-0.19;100.00
9738;BME280;4908;47.446;13.900;2023-12-20T09:59:12;92698.75;;;-0.26;100.00
9738;BME280;4908;47.446;13.900;2023-12-20T10:01:40;92696.47;;;-0.07;100.00
9738;BME280;4908;47.446;13.900;2023-12-20T10:04:10;92693.91;;;-0.16;100.00
9738;BME280;4908;47.446;13.900;2023-12-20T10:06:39;92699.00;;;-0.19;100.00
9738;BME280;4908;47.446;13.900;2023-12-20T10:09:06;92695.00;;;-0.25;100.00
9738;BME280;4908;47.446;13.900;2023-12-20T10:11:35;92689.81;;;-0.42;100.00
9738;BME280;4908;47.446;13.900;2023-12-20T10:14:02;92690.78;;;-0.55;100.00
9738;BME280;4908;47.446;13.900;2023-12-20T10:16:30;92685.06;;;-0.49;100.00
9738;BME280;4908;47.446;13.900;2023-12-20T10:18:58;92673.09;;;-0.38;100.00
9738;BME280;4908;47.446;13.900;2023-12-20T10:21:27;92695.19;;;-0.30;100.00
9738;BME280;4908;47.446;13.900;2023-12-20T10:23:57;92680.06;;;-0.04;100.00
9738;BME280;4908;47.446;13.900;2023-12-20T10:26:25;92678.72;;;-0.10;100.00
9738;BME280;4908;47.446;13.900;2023-12-20T10:28:54;92682.19;;;0.03;100.00
9738;BME280;4908;47.446;13.900;2023-12-20T10:31:29;92681.13;;;0.24;100.00
9738;BME280;4908;47.446;13.900;2023-12-20T10:33:57;92678.47;;;0.33;100.00
9738;BME280;4908;47.446;13.900;2023-12-20T10:36:25;92666.69;;;0.30;100.00
9738;BME280;4908;47.446;13.900;2023-12-20T10:38:55;92659.03;;;0.17;100.00
9738;BME280;4908;47.446;13.900;2023-12-20T10:41:25;92655.84;;;0.11;100.00
9738;BME280;4908;47.446;13.900;2023-12-20T10:43:56;92661.47;;;0.01;100.00
9738;BME280;4908;47.446;13.900;2023-12-20T10:46:26;92650.69;;;0.15;100.00
9738;BME280;4908;47.446;13.900;2023-12-20T10:48:53;92641.97;;;0.43;100.00
9738;BME280;4908;47.446;13.900;2023-12-20T10:51:21;92651.22;;;0.70;100.00
9738;BME280;4908;47.446;13.900;2023-12-20T10:53:48;92643.81;;;0.84;100.00
9738;BME280;4908;47.446;13.900;2023-12-20T10:56:17;92636.44;;;0.77;100.00
9738;BME280;4908;47.446;13.900;2023-12-20T10:58:45;92630.31;;;0.85;100.00
9738;BME280;4908;47.446;13.900;2023-12-20T11:01:13;92633.75;;;0.98;100.00
9738;BME280;4908;47.446;13.900;2023-12-20T11:03:43;92633.66;;;0.95;100.00
9738;BME280;4908;47.446;13.900;2023-12-20T11:06:19;92627.94;;;0.93;100.00
9738;BME280;4908;47.446;13.900;2023-12-20T11:08:53;92634.44;;;1.07;100.00
9738;BME280;4908;47.446;13.900;2023-12-20T11:11:32;92631.50;;;1.21;100.00
9738;BME280;4908;47.446;13.900;2023-12-20T11:14:04;92631.78;;;0.95;100.00
9738;BME280;4908;47.446;13.900;2023-12-20T11:16:32;92629.72;;;1.01;100.00
9738;BME280;4908;47.446;13.900;2023-12-20T11:19:05;92621.41;;;1.23;100.00
9738;BME280;4908;47.446;13.900;2023-12-20T11:21:32;92620.06;;;1.05;100.00
9738;BME280;4908;47.446;13.900;2023-12-20T11:23:59;92632.31;;;0.88;100.00
9738;BME280;4908;47.446;13.900;2023-12-20T11:26:28;92622.41;;;1.18;100.00
9738;BME280;4908;47.446;13.900;2023-12-20T11:29:33;92610.00;;;1.31;100.00
9738;BME280;4908;47.446;13.900;2023-12-20T11:32:02;92615.97;;;1.64;100.00
9738;BME280;4908;47.446;13.900;2023-12-20T11:34:31;92612.22;;;1.53;100.00
9738;BME280;4908;47.446;13.900;2023-12-20T11:37:00;92612.22;;;1.41;100.00
9738;BME280;4908;47.446;13.900;2023-12-20T11:39:27;92610.34;;;1.77;100.00
9738;BME280;4908;47.446;13.900;2023-12-20T11:41:57;92610.06;;;1.67;100.00
9738;BME280;4908;47.446;13.900;2023-12-20T11:44:25;92610.78;;;1.67;100.00
9738;BME280;4908;47.446;13.900;2023-12-20T11:46:53;92613.97;;;1.73;100.00
9738;BME280;4908;47.446;13.900;2023-12-20T11:49:23;92615.31;;;1.91;100.00
9738;BME280;4908;47.446;13.900;2023-12-20T11:51:51;92612.03;;;1.94;100.00
9738;BME280;4908;47.446;13.900;2023-12-20T11:54:18;92608.06;;;2.00;100.00
9738;BME280;4908;47.446;13.900;2023-12-20T11:56:46;92609.13;;;2.11;100.00
9738;BME280;4908;47.446;13.900;2023-12-20T11:59:14;92608.47;;;2.02;100.00
9738;BME280;4908;47.446;13.900;2023-12-20T12:01:48;92611.34;;;2.09;100.00
9738;BME280;4908;47.446;13.900;2023-12-20T12:04:16;92610.81;;;2.43;100.00
9738;BME280;4908;47.446;13.900;2023-12-20T12:06:43;92596.09;;;2.42;100.00
9738;BME280;4908;47.446;13.900;2023-12-20T12:09:11;92599.84;;;2.29;100.00
9738;BME280;4908;47.446;13.900;2023-12-20T12:11:38;92595.34;;;2.30;100.00
9738;BME280;4908;47.446;13.900;2023-12-20T12:14:06;92608.59;;;2.57;100.00
9738;BME280;4908;47.446;13.900;2023-12-20T12:16:35;92603.94;;;2.66;100.00
9738;BME280;4908;47.446;13.900;2023-12-20T12:19:02;92598.53;;;2.63;100.00
9738;BME280;4908;47.446;13.900;2023-12-20T12:21:29;92604.13;;;2.73;100.00
9738;BME280;4908;47.446;13.900;2023-12-20T12:24:06;92608.31;;;2.74;100.00
9738;BME280;4908;47.446;13.900;2023-12-20T12:26:33;92609.25;;;2.82;100.00
9738;BME280;4908;47.446;13.900;2023-12-20T12:29:00;92606.16;;;2.92;100.00
9738;BME280;4908;47.446;13.900;2023-12-20T12:31:28;92604.50;;;2.88;100.00
9738;BME280;4908;47.446;13.900;2023-12-20T12:33:57;92597.06;;;3.21;100.00
9738;BME280;4908;47.446;13.900;2023-12-20T12:36:24;92587.84;;;3.15;100.00
9738;BME280;4908;47.446;13.900;2023-12-20T12:38:51;92590.38;;;2.96;100.00
9738;BME280;4908;47.446;13.900;2023-12-20T12:41:18;92596.16;;;2.86;100.00
9738;BME280;4908;47.446;13.900;2023-12-20T12:43:46;92592.56;;;2.38;100.00
9738;BME280;4908;47.446;13.900;2023-12-20T12:46:13;92592.75;;;2.45;100.00
9738;BME280;4908;47.446;13.900;2023-12-20T12:48:40;92589.91;;;2.50;100.00
9738;BME280;4908;47.446;13.900;2023-12-20T12:51:08;92591.63;;;2.58;100.00
9738;BME280;4908;47.446;13.900;2023-12-20T12:53:38;92585.00;;;2.64;100.00
9738;BME280;4908;47.446;13.900;2023-12-20T12:56:06;92582.16;;;2.85;100.00
9738;BME280;4908;47.446;13.900;2023-12-20T12:58:33;92585.38;;;3.06;100.00
9738;BME280;4908;47.446;13.900;2023-12-20T13:01:00;92582.25;;;3.32;100.00
9738;BME280;4908;47.446;13.900;2023-12-20T13:03:29;92569.13;;;4.01;100.00
9738;BME280;4908;47.446;13.900;2023-12-20T13:05:56;92566.56;;;4.39;100.00
9738;BME280;4908;47.446;13.900;2023-12-20T13:08:24;92559.88;;;4.45;100.00